createdAt,value
2018-10-16T00:01:04.847Z,70.22
2018-10-16T00:04:08.608Z,70.62
2018-10-16T00:07:12.169Z,71.54
2018-10-16T00:10:19.937Z,71.24
2018-10-16T00:13:23.530Z,70.79
2018-10-16T00:16:27.530Z,70.43
2018-10-16T00:19:31.789Z,71.51
2018-10-16T00:22:35.416Z,68.45
2018-10-16T00:25:39.195Z,69.66
2018-10-16T00:28:42.808Z,69.63
2018-10-16T00:31:46.368Z,69.30
2018-10-16T00:34:49.975Z,69.66
2018-10-16T00:37:53.648Z,69.99
2018-10-16T00:40:57.397Z,69.55
2018-10-16T00:44:00.937Z,70.19
2018-10-16T00:47:04.522Z,70.47
2018-10-16T00:50:08.452Z,70.22
2018-10-16T00:53:12.192Z,69.86
2018-10-16T00:56:15.812Z,69.91
2018-10-16T00:59:19.367Z,70.89
2018-10-16T01:02:22.946Z,69.51
2018-10-16T01:05:26.607Z,70.54
2018-10-16T01:08:30.205Z,70.73
2018-10-16T01:11:33.773Z,70.22
2018-10-16T01:14:37.346Z,71.25
2018-10-16T01:17:41.218Z,72.45
2018-10-16T01:20:44.781Z,72.56
2018-10-16T01:23:48.360Z,71.82
2018-10-16T01:26:52.070Z,72.17
2018-10-16T01:29:55.808Z,72.14
2018-10-16T01:32:59.352Z,72.30
2018-10-16T01:36:02.941Z,73.07
2018-10-16T01:39:07.137Z,72.95
2018-10-16T01:42:10.741Z,73.10
2018-10-16T01:45:14.334Z,71.76
2018-10-16T01:48:17.888Z,70.64
2018-10-16T01:51:21.593Z,70.10
2018-10-16T01:54:25.196Z,69.86
2018-10-16T01:57:28.859Z,68.89
2018-10-16T02:00:32.460Z,69.56
2018-10-16T02:03:42.695Z,70.22
2018-10-16T02:06:46.312Z,70.38
2018-10-16T02:09:49.930Z,71.37
2018-10-16T02:12:53.517Z,71.86
2018-10-16T02:15:57.476Z,71.88
2018-10-16T02:19:00.986Z,72.38
2018-10-16T02:22:04.846Z,73.50
2018-10-16T02:25:09.461Z,73.99
2018-10-16T02:28:13.071Z,74.19
2018-10-16T02:31:16.636Z,74.17
2018-10-16T02:34:23.073Z,73.35
2018-10-16T02:37:26.617Z,72.95
2018-10-16T02:40:30.243Z,73.47
2018-10-16T02:43:33.890Z,74.06
2018-10-16T02:46:37.516Z,74.95
2018-10-16T02:49:41.046Z,75.07
2018-10-16T02:52:44.722Z,75.18
2018-10-16T02:55:48.246Z,75.23
2018-10-16T02:58:51.915Z,75.41
2018-10-16T03:01:55.621Z,75.06
2018-10-16T03:04:59.278Z,75.02
2018-10-16T03:08:02.877Z,74.54
2018-10-16T03:11:06.723Z,73.52
2018-10-16T03:14:10.338Z,73.35
2018-10-16T03:17:14.001Z,73.78
2018-10-16T03:20:17.746Z,74.52
2018-10-16T03:23:21.436Z,75.03
2018-10-16T03:26:25.081Z,74.97
2018-10-16T03:29:28.655Z,74.58
2018-10-16T03:32:32.233Z,72.80
2018-10-16T03:35:35.922Z,73.15
2018-10-16T03:38:39.580Z,72.98
2018-10-16T03:41:43.125Z,74.26
2018-10-16T03:44:46.605Z,71.95
2018-10-16T03:47:50.186Z,72.14
2018-10-16T03:50:53.825Z,70.79
2018-10-16T03:53:57.460Z,70.98
2018-10-16T03:57:01.056Z,69.17
2018-10-16T04:00:05.028Z,69.12
2018-10-16T04:03:08.523Z,68.53
2018-10-16T04:06:12.197Z,69.09
2018-10-16T04:09:15.707Z,68.60
2018-10-16T04:12:19.388Z,69.53
2018-10-16T04:15:22.990Z,69.14
2018-10-16T04:18:26.642Z,69.98
2018-10-16T04:21:45.746Z,69.18
2018-10-16T04:24:49.470Z,69.99
2018-10-16T04:27:53.185Z,69.67
2018-10-16T04:30:57.146Z,69.78
2018-10-16T04:34:00.788Z,69.18
2018-10-16T04:37:04.411Z,68.54
2018-10-16T04:40:08.045Z,69.19
2018-10-16T04:43:11.611Z,70.61
2018-10-16T04:46:15.287Z,70.03
2018-10-16T04:49:18.957Z,70.78
2018-10-16T04:52:22.641Z,71.46
2018-10-16T04:55:26.222Z,70.90
2018-10-16T04:58:29.856Z,68.81
2018-10-16T05:01:33.495Z,69.44
2018-10-16T05:04:37.025Z,70.85
2018-10-16T05:07:40.676Z,71.56
2018-10-16T05:10:44.295Z,71.85
2018-10-16T05:13:48.003Z,72.02
2018-10-16T05:16:51.662Z,71.43
2018-10-16T05:19:55.093Z,72.17
2018-10-16T05:22:59.651Z,72.21
2018-10-16T05:26:03.205Z,70.92
2018-10-16T05:29:07.699Z,71.42
2018-10-16T05:32:11.356Z,70.85
2018-10-16T05:35:15.080Z,71.34
2018-10-16T05:38:18.680Z,71.56
2018-10-16T05:41:22.366Z,70.68
2018-10-16T05:44:26.048Z,70.55
2018-10-16T05:47:29.705Z,71.20
2018-10-16T05:50:33.291Z,71.63
2018-10-16T05:53:36.958Z,70.81
2018-10-16T05:56:40.579Z,71.40
2018-10-16T05:59:44.076Z,71.40
2018-10-16T06:02:48.197Z,71.86
2018-10-16T06:05:51.786Z,71.74
2018-10-16T06:08:55.540Z,71.67
2018-10-16T06:11:59.221Z,72.05
2018-10-16T06:15:03.242Z,72.24
2018-10-16T06:18:06.824Z,72.07
2018-10-16T06:21:10.427Z,72.16
2018-10-16T06:24:14.090Z,72.13
2018-10-16T06:27:17.733Z,72.85
2018-10-16T06:30:21.502Z,72.64
2018-10-16T06:33:26.743Z,71.14
2018-10-16T06:36:30.290Z,71.18
2018-10-16T06:39:33.836Z,69.44
2018-10-16T06:42:37.911Z,68.80
2018-10-16T06:45:41.552Z,67.93
2018-10-16T06:48:45.638Z,68.91
2018-10-16T06:51:49.044Z,67.64
2018-10-16T06:54:52.681Z,67.35
2018-10-16T06:57:56.203Z,66.67
2018-10-16T07:00:59.777Z,66.38
2018-10-16T07:04:03.371Z,67.45
2018-10-16T07:07:07.908Z,67.31
2018-10-16T07:10:11.319Z,65.99
2018-10-16T07:13:14.939Z,67.02
2018-10-16T07:16:18.542Z,67.15
2018-10-16T07:19:22.149Z,67.76
2018-10-16T07:22:25.775Z,67.44
2018-10-16T07:25:29.296Z,67.09
2018-10-16T07:28:32.968Z,67.47
2018-10-16T07:31:36.711Z,68.78
2018-10-16T07:34:40.342Z,70.30
2018-10-16T07:37:44.047Z,68.63
2018-10-16T07:40:47.813Z,69.75
2018-10-16T07:43:51.436Z,69.34
2018-10-16T07:46:55.056Z,68.42
2018-10-16T07:49:58.800Z,68.40
2018-10-16T07:53:02.726Z,68.32
2018-10-16T07:56:06.508Z,67.91
2018-10-16T07:59:10.111Z,68.81
2018-10-16T08:02:13.715Z,68.17
2018-10-16T08:05:17.279Z,69.06
2018-10-16T08:08:20.993Z,68.14
2018-10-16T08:11:24.732Z,68.33
2018-10-16T08:14:28.170Z,68.63
2018-10-16T08:17:31.806Z,69.80
2018-10-16T08:20:35.370Z,67.54
2018-10-16T08:23:39.026Z,68.28
2018-10-16T08:26:42.707Z,68.54
2018-10-16T08:29:46.197Z,67.46
2018-10-16T08:32:49.991Z,68.39
2018-10-16T08:35:53.647Z,67.83
2018-10-16T08:39:32.258Z,68.11
2018-10-16T08:43:46.761Z,67.81
2018-10-16T08:47:01.703Z,67.38
2018-10-16T08:50:16.492Z,67.49
2018-10-16T08:53:20.077Z,67.75
2018-10-16T08:56:23.771Z,67.93
2018-10-16T08:59:27.812Z,70.39
2018-10-16T09:02:31.552Z,68.02
2018-10-16T09:05:35.424Z,68.13
2018-10-16T09:08:39.052Z,67.77
2018-10-16T09:11:44.257Z,67.23
2018-10-16T09:14:47.899Z,67.67
2018-10-16T09:17:51.515Z,68.04
2018-10-16T09:20:55.748Z,68.84
2018-10-16T09:23:59.379Z,68.88
2018-10-16T09:27:03.107Z,68.19
2018-10-16T09:30:09.098Z,67.76
2018-10-16T09:33:12.729Z,68.67
2018-10-16T09:36:16.334Z,67.57
2018-10-16T09:39:20.052Z,67.32
2018-10-16T09:42:23.761Z,67.08
2018-10-16T09:45:27.478Z,66.32
2018-10-16T09:48:31.276Z,66.52
2018-10-16T09:51:34.870Z,64.42
2018-10-16T09:54:38.668Z,64.06
2018-10-16T09:57:42.379Z,64.06
2018-10-16T10:00:51.319Z,65.19
2018-10-16T10:03:54.967Z,65.60
2018-10-16T10:06:58.697Z,65.36
2018-10-16T10:10:02.318Z,63.64
2018-10-16T10:13:06.096Z,63.84
2018-10-16T10:16:09.733Z,63.57
2018-10-16T10:19:13.418Z,62.94
2018-10-16T10:22:17.104Z,63.23
2018-10-16T10:25:20.824Z,62.70
2018-10-16T10:28:24.408Z,62.93
2018-10-16T10:31:28.679Z,64.10
2018-10-16T10:34:32.387Z,63.58
2018-10-16T10:37:36.078Z,63.14
2018-10-16T10:40:39.772Z,61.71
2018-10-16T10:43:43.493Z,63.13
2018-10-16T10:46:47.183Z,63.36
2018-10-16T10:49:50.770Z,63.80
2018-10-16T10:52:54.443Z,60.91
2018-10-16T10:55:58.098Z,60.47
2018-10-16T10:59:01.749Z,61.21
2018-10-16T11:02:05.872Z,59.64
2018-10-16T11:05:10.635Z,57.52
2018-10-16T11:08:14.276Z,57.92
2018-10-16T11:11:17.909Z,56.94
2018-10-16T11:14:21.723Z,57.68
2018-10-16T11:17:25.343Z,57.98
2018-10-16T11:20:29.002Z,59.26
2018-10-16T11:23:32.689Z,59.30
2018-10-16T11:26:36.429Z,59.23
2018-10-16T11:29:39.968Z,59.58
2018-10-16T11:32:43.987Z,61.17
2018-10-16T11:35:47.853Z,59.67
2018-10-16T11:38:51.674Z,59.57
2018-10-16T11:41:55.263Z,60.01
2018-10-16T11:44:59.086Z,58.97
2018-10-16T11:48:02.935Z,59.19
2018-10-16T11:51:06.582Z,60.05
2018-10-16T11:54:10.448Z,59.94
2018-10-16T11:57:14.242Z,58.97
2018-10-16T12:00:18.545Z,58.91
2018-10-16T12:03:22.136Z,59.76
2018-10-16T12:06:25.768Z,57.59
2018-10-16T12:09:29.574Z,59.20
2018-10-16T12:12:33.222Z,59.98
2018-10-16T12:15:36.917Z,59.56
2018-10-16T12:19:00.512Z,58.82
2018-10-16T12:22:04.164Z,61.17
2018-10-16T12:25:08.320Z,57.01
2018-10-16T12:28:11.971Z,56.18
2018-10-16T12:31:15.789Z,59.11
2018-10-16T12:34:19.478Z,57.46
2018-10-16T12:37:23.179Z,59.04
2018-10-16T12:40:26.781Z,60.51
2018-10-16T12:43:30.629Z,60.11
2018-10-16T12:46:34.108Z,60.56
2018-10-16T12:49:37.681Z,62.49
2018-10-16T12:52:41.313Z,60.67
2018-10-16T12:55:44.968Z,61.18
2018-10-16T12:58:48.528Z,59.61
2018-10-16T13:01:52.180Z,60.30
2018-10-16T13:04:55.785Z,63.87
2018-10-16T13:07:59.410Z,61.55
2018-10-16T13:11:03.137Z,58.54
2018-10-16T13:14:06.955Z,58.72
2018-10-16T13:17:10.588Z,59.37
2018-10-16T13:20:15.232Z,58.05
2018-10-16T13:23:18.963Z,57.11
2018-10-16T13:26:22.576Z,56.94
2018-10-16T13:29:26.496Z,56.80
2018-10-16T13:32:29.932Z,55.37
2018-10-16T13:35:33.619Z,58.31
2018-10-16T13:38:37.313Z,56.83
2018-10-16T13:41:40.992Z,57.96
2018-10-16T13:44:44.598Z,57.74
2018-10-16T13:47:48.289Z,56.29
2018-10-16T13:50:52.087Z,58.07
2018-10-16T13:53:55.758Z,56.37
2018-10-16T13:56:59.421Z,55.29
2018-10-16T14:00:03.249Z,56.59
2018-10-16T14:03:06.919Z,59.04
2018-10-16T14:06:10.699Z,57.15
2018-10-16T14:09:14.408Z,58.50
2018-10-16T14:12:18.087Z,58.11
2018-10-16T14:15:21.751Z,57.01
2018-10-16T14:18:25.563Z,57.71
2018-10-16T14:21:29.247Z,57.44
2018-10-16T14:24:32.912Z,58.82
2018-10-16T14:27:36.659Z,58.87
2018-10-16T14:30:40.344Z,60.14
2018-10-16T14:33:44.153Z,61.26
2018-10-16T14:36:47.767Z,61.39
2018-10-16T14:39:51.418Z,63.28
2018-10-16T14:42:55.050Z,63.52
2018-10-16T14:45:58.717Z,63.48
2018-10-16T14:49:02.537Z,64.68
2018-10-16T14:52:06.484Z,63.77
2018-10-16T14:55:10.239Z,64.27
2018-10-16T14:58:14.177Z,63.48
2018-10-16T15:01:17.889Z,62.55
2018-10-16T15:04:21.553Z,63.22
2018-10-16T15:07:25.223Z,64.00
2018-10-16T15:10:29.035Z,65.08
2018-10-16T15:13:32.683Z,65.44
2018-10-16T15:16:42.783Z,65.15
2018-10-16T15:19:46.328Z,65.96
2018-10-16T15:22:49.999Z,66.86
2018-10-16T15:25:53.869Z,67.18
2018-10-16T15:28:57.579Z,67.41
2018-10-16T15:32:01.379Z,67.85
2018-10-16T15:35:05.922Z,68.48
2018-10-16T15:38:09.562Z,68.61
2018-10-16T15:41:13.346Z,69.46
2018-10-16T15:44:17.063Z,69.31
2018-10-16T15:47:21.608Z,70.03
2018-10-16T15:50:25.264Z,70.62
2018-10-16T15:53:28.859Z,70.94
2018-10-16T15:56:32.779Z,71.01
2018-10-16T15:59:36.704Z,71.47
2018-10-16T16:02:40.365Z,71.93
2018-10-16T16:05:44.054Z,73.36
2018-10-16T16:08:47.834Z,74.20
2018-10-16T16:11:51.586Z,75.43
2018-10-16T16:14:55.468Z,76.12
2018-10-16T16:17:59.352Z,76.57
2018-10-16T16:21:03.065Z,77.43
2018-10-16T16:24:06.881Z,77.36
2018-10-16T16:27:10.446Z,77.48
2018-10-16T16:30:15.576Z,78.24
2018-10-16T16:33:19.229Z,78.47
2018-10-16T16:36:22.878Z,79.09
2018-10-16T16:39:26.575Z,78.84
2018-10-16T16:42:30.263Z,79.25
2018-10-16T16:45:33.881Z,79.17
2018-10-16T16:48:37.599Z,79.54
2018-10-16T16:51:41.244Z,79.56
2018-10-16T16:54:44.951Z,79.93
2018-10-16T16:57:48.705Z,80.34
2018-10-16T17:00:52.376Z,79.59
2018-10-16T17:03:55.988Z,80.32
2018-10-16T17:06:59.698Z,79.87
2018-10-16T17:10:03.851Z,80.38
2018-10-16T17:13:07.612Z,80.73
2018-10-16T17:16:11.378Z,81.36
2018-10-16T17:19:15.024Z,81.20
2018-10-16T17:22:19.061Z,80.92
2018-10-16T17:25:23.039Z,81.12
2018-10-16T17:28:26.534Z,81.53
2018-10-16T17:31:30.306Z,81.51
2018-10-16T17:34:34.086Z,81.71
2018-10-16T17:37:37.940Z,82.00
2018-10-16T17:40:41.631Z,81.85
2018-10-16T17:43:45.345Z,81.57
2018-10-16T17:46:49.189Z,81.66
2018-10-16T17:49:52.977Z,81.21
2018-10-16T17:52:56.792Z,80.19
2018-10-16T17:56:00.644Z,80.48
2018-10-16T17:59:04.364Z,80.70
2018-10-16T18:02:08.140Z,80.57
2018-10-16T18:05:12.269Z,80.73
2018-10-16T18:08:15.953Z,80.86
2018-10-16T18:11:19.629Z,78.67
2018-10-16T18:14:23.256Z,75.51
2018-10-16T18:17:26.888Z,77.07
2018-10-16T18:20:30.643Z,78.51
2018-10-16T18:23:40.939Z,78.43
2018-10-16T18:26:45.399Z,78.01
2018-10-16T18:29:49.274Z,78.52
2018-10-16T18:32:52.949Z,79.45
2018-10-16T18:35:56.572Z,80.18
2018-10-16T18:39:00.214Z,80.66
2018-10-16T18:42:04.032Z,81.47
2018-10-16T18:45:08.746Z,81.87
2018-10-16T18:48:12.732Z,82.19
2018-10-16T18:51:16.793Z,81.92
2018-10-16T18:54:20.397Z,81.96
2018-10-16T18:57:24.026Z,82.04
2018-10-16T19:00:27.781Z,82.27
2018-10-16T19:03:31.608Z,81.75
2018-10-16T19:06:35.258Z,79.64
2018-10-16T19:09:39.122Z,77.45
2018-10-16T19:12:42.962Z,78.04
2018-10-16T19:15:46.635Z,78.39
2018-10-16T19:18:50.412Z,78.84
2018-10-16T19:21:54.099Z,79.23
2018-10-16T19:24:57.852Z,79.11
2018-10-16T19:28:01.686Z,79.25
2018-10-16T19:31:05.366Z,79.67
2018-10-16T19:34:09.075Z,79.93
2018-10-16T19:37:12.742Z,79.34
2018-10-16T19:40:16.975Z,78.51
2018-10-16T19:43:20.704Z,77.98
2018-10-16T19:46:24.504Z,77.64
2018-10-16T19:49:28.370Z,77.17
2018-10-16T19:52:32.123Z,75.10
2018-10-16T19:55:35.921Z,74.91
2018-10-16T19:58:39.629Z,77.23
2018-10-16T20:01:43.362Z,77.02
2018-10-16T20:04:47.105Z,77.77
2018-10-16T20:07:50.820Z,78.61
2018-10-16T20:10:54.560Z,77.74
2018-10-16T20:13:58.275Z,77.68
2018-10-16T20:17:02.008Z,77.64
2018-10-16T20:20:06.315Z,77.73
2018-10-16T20:23:10.092Z,78.42
2018-10-16T20:26:13.766Z,79.77
2018-10-16T20:29:17.366Z,81.31
2018-10-16T20:32:21.026Z,82.74
2018-10-16T20:35:24.745Z,83.53
2018-10-16T20:38:28.614Z,83.84
2018-10-16T20:41:32.441Z,84.35
2018-10-16T20:44:36.210Z,84.85
2018-10-16T20:47:39.998Z,85.35
2018-10-16T20:50:44.160Z,86.11
2018-10-16T20:53:47.948Z,86.57
2018-10-16T20:56:51.703Z,86.50
2018-10-16T20:59:56.030Z,85.98
2018-10-16T21:02:59.765Z,85.19
2018-10-16T21:06:03.651Z,84.85
2018-10-16T21:09:07.531Z,82.28
2018-10-16T21:12:11.164Z,83.16
2018-10-16T21:15:14.961Z,82.41
2018-10-16T21:18:18.564Z,82.31
2018-10-16T21:21:22.214Z,82.06
2018-10-16T21:24:25.854Z,82.79
2018-10-16T21:27:29.508Z,83.46
2018-10-16T21:30:33.299Z,84.21
2018-10-16T21:33:36.845Z,82.76
2018-10-16T21:36:40.503Z,81.64
2018-10-16T21:39:44.094Z,82.04
2018-10-16T21:42:47.735Z,81.95
2018-10-16T21:45:51.509Z,82.54
2018-10-16T21:48:55.113Z,82.63
2018-10-16T21:51:58.862Z,82.88
2018-10-16T21:55:02.589Z,82.93
2018-10-16T21:58:06.395Z,82.64
2018-10-16T22:01:11.293Z,83.21
2018-10-16T22:04:14.696Z,83.50
2018-10-16T22:07:18.288Z,82.64
2018-10-16T22:10:22.515Z,81.35
2018-10-16T22:13:26.109Z,82.76
2018-10-16T22:16:29.784Z,82.42
2018-10-16T22:19:33.481Z,81.82
2018-10-16T22:22:37.174Z,82.97
2018-10-16T22:25:40.734Z,83.61
2018-10-16T22:28:44.505Z,84.45
2018-10-16T22:31:48.159Z,85.30
2018-10-16T22:34:51.785Z,85.60
2018-10-16T22:37:55.391Z,86.42
2018-10-16T22:40:59.167Z,85.85
2018-10-16T22:44:02.829Z,83.93
2018-10-16T22:47:06.576Z,84.42
2018-10-16T22:50:11.849Z,84.82
2018-10-16T22:53:15.614Z,85.38
2018-10-16T22:56:19.207Z,86.40
2018-10-16T22:59:22.913Z,86.26
2018-10-16T23:02:26.544Z,87.09
2018-10-16T23:05:30.103Z,87.01
2018-10-16T23:08:33.693Z,89.49
2018-10-16T23:11:37.440Z,88.24
2018-10-16T23:14:41.009Z,88.79
2018-10-16T23:17:44.583Z,88.49
2018-10-16T23:20:48.058Z,88.10
2018-10-16T23:23:51.664Z,87.42
2018-10-16T23:26:55.247Z,86.82
2018-10-16T23:29:58.750Z,87.05
2018-10-16T23:33:02.345Z,86.34
2018-10-16T23:36:06.034Z,86.75
2018-10-16T23:39:11.874Z,87.18
2018-10-16T23:42:15.536Z,87.20
2018-10-16T23:45:19.135Z,86.46
2018-10-16T23:48:22.839Z,86.40
2018-10-16T23:51:26.504Z,86.59
2018-10-16T23:54:30.213Z,85.92
2018-10-16T23:57:33.769Z,85.65
